CheckWX is a tool to help pilots better visualize weather data.  It is not intended as a substitute for an official pre-flight weather briefing.

23:17:22 UTC

KPWK METAR
Chicago Executive Airport
Chicago/Prospect Heights/Wheeling, Illinois, USA
Current

25 mins ago

KPWK 242252Z 03008G19KT 10SM BKN100 BKN120 03/00 A2986 RMK AO2 SLP118 T00330000
Observed
Feb-24 @ 22:52 UTC
Wind
  • 030° at 8 KTS
  • Gusting to 19 KTS
Visibility
10 SM
Flight Rules
VFR
Cloud Levels
  • Broken at 10,000' AGL
  • Broken at 12,000' AGL
Temperature
C / 37°F
Dewpoint
C / 32°F
Humidity
81%
Altimeter
29.86" Hg
Pressure
1011.22 hPa
Previous

1 hour ago

KPWK 242152Z 03011G19KT 10SM OVC100 04/00 A2986 RMK AO2 SLP115 T00390000
Observed
Feb-24 @ 21:52 UTC
Wind
  • 030° at 11 KTS
  • Gusting to 19 KTS
Visibility
10 SM
Flight Rules
VFR
Cloud Levels
  • Overcast at 10,000' AGL
Temperature
C / 39°F
Dewpoint
C / 32°F
Humidity
75%
Altimeter
29.86" Hg
Pressure
1011.22 hPa
Previous

2 hours ago

KPWK 242052Z 04011KT 10SM OVC110 04/M01 A2986 RMK AO2 SLP116 T00441006 56013
Observed
Feb-24 @ 20:52 UTC
Wind
  • 040° at 11 KTS
Visibility
10 SM
Flight Rules
VFR
Cloud Levels
  • Overcast at 11,000' AGL
Temperature
C / 39°F
Dewpoint
-1°C / 30°F
Humidity
70%
Altimeter
29.86" Hg
Pressure
1011.22 hPa